Atlanta, Louisiana
Current Conditions -  °F | °C
As of 9:55 AM on Thursday 27 Nov 2014 (Local Time) from KIER Reporting Station
Clear Clear  
Wind Chill: 11°   Ceiling: Unl
Heat Index: 11°   Visibility: 10mi
Dew Point:   Wind: 10mph
Humidity: 47%   Direction: 360°N
Pressure: 30.53"   Gusts: NA
Location:  31.81°N, 92.74°W
Report Text: KIER 271555Z AUTO 36009KT 10SM CLR 11/00 A3053 RMK AO2 T01090000
Loading
Personal Weather Stations






























Interactive Weather Map New forecast layout! Learn more

10-Day Weather Forecast

Advertisements
Track Severe Weather on mobile